createdAt,value
2022-12-13T00:00:57.830Z,63.33
2022-12-13T00:03:24.967Z,58.95
2022-12-13T00:05:52.077Z,54.17
2022-12-13T00:08:19.307Z,56.53
2022-12-13T00:10:46.486Z,55.60
2022-12-13T00:13:13.696Z,58.25
2022-12-13T00:15:40.950Z,54.63
2022-12-13T00:18:08.054Z,52.35
2022-12-13T00:20:35.811Z,50.83
2022-12-13T00:23:02.995Z,53.22
2022-12-13T00:25:30.100Z,47.80
2022-12-13T00:27:57.224Z,48.17
2022-12-13T00:30:24.392Z,49.13
2022-12-13T00:32:51.514Z,48.95
2022-12-13T00:35:18.614Z,45.55
2022-12-13T00:37:45.777Z,46.05
2022-12-13T00:40:13.303Z,48.83
2022-12-13T00:42:40.440Z,50.35
2022-12-13T00:45:07.961Z,47.85
2022-12-13T00:47:35.088Z,48.13
2022-12-13T00:50:02.427Z,48.33
2022-12-13T00:52:29.719Z,45.55
2022-12-13T00:54:56.847Z,50.13
2022-12-13T00:57:23.952Z,43.80
2022-12-13T00:59:51.159Z,46.35
2022-12-13T01:02:18.259Z,47.08
2022-12-13T01:04:45.385Z,52.95
2022-12-13T01:07:12.569Z,51.08
2022-12-13T01:09:39.997Z,52.13
2022-12-13T01:12:07.362Z,47.75
2022-12-13T01:14:39.157Z,51.83
2022-12-13T01:17:07.179Z,50.00
2022-12-13T01:19:34.536Z,48.08
2022-12-13T01:22:03.364Z,47.40
2022-12-13T01:24:31.495Z,52.05
2022-12-13T01:26:59.037Z,48.00
2022-12-13T01:29:26.887Z,47.42
2022-12-13T01:31:54.635Z,54.53
2022-12-13T01:34:26.365Z,56.50
2022-12-13T01:36:57.986Z,54.80
2022-12-13T01:39:27.044Z,51.80
2022-12-13T01:42:00.166Z,53.10
2022-12-13T01:44:45.863Z,45.08
2022-12-13T01:47:13.398Z,49.05
2022-12-13T01:49:40.600Z,45.92
2022-12-13T01:52:09.365Z,45.83
2022-12-13T01:54:39.081Z,44.95
2022-12-13T01:57:14.218Z,45.97
2022-12-13T01:59:42.430Z,44.90
2022-12-13T02:02:10.273Z,45.08
2022-12-13T02:04:43.757Z,49.88
2022-12-13T02:07:12.706Z,45.58
2022-12-13T02:09:39.814Z,50.67
2022-12-13T02:12:07.330Z,49.78
2022-12-13T02:14:37.913Z,49.22
2022-12-13T02:17:04.989Z,51.10
2022-12-13T02:19:50.936Z,44.50
2022-12-13T02:22:33.746Z,50.58
2022-12-13T02:25:01.883Z,48.53
2022-12-13T02:27:30.803Z,53.80
2022-12-13T02:30:17.199Z,50.28
2022-12-13T02:32:44.343Z,51.53
2022-12-13T02:35:18.880Z,51.28
2022-12-13T02:38:05.021Z,51.30
2022-12-13T02:40:44.179Z,51.60
2022-12-13T02:43:18.111Z,54.70
2022-12-13T02:45:50.030Z,50.78
2022-12-13T02:48:29.187Z,47.55
2022-12-13T02:50:57.038Z,49.20
2022-12-13T02:53:25.067Z,48.85
2022-12-13T02:55:52.173Z,50.17
2022-12-13T02:58:31.260Z,49.30
2022-12-13T03:01:07.507Z,51.92
2022-12-13T03:04:13.132Z,52.15
2022-12-13T03:06:46.517Z,48.88
2022-12-13T03:09:25.901Z,47.58
2022-12-13T03:12:30.424Z,50.88
2022-12-13T03:14:57.586Z,47.72
2022-12-13T03:17:26.438Z,50.05
2022-12-13T03:19:53.787Z,48.40
2022-12-13T03:22:21.474Z,56.17
2022-12-13T03:24:49.608Z,50.58
2022-12-13T03:27:16.746Z,50.60
2022-12-13T03:29:43.978Z,48.17
2022-12-13T03:32:11.080Z,45.47
2022-12-13T03:34:43.697Z,46.25
2022-12-13T03:37:12.151Z,47.28
2022-12-13T03:39:39.265Z,48.30
2022-12-13T03:42:06.404Z,49.80
2022-12-13T03:44:33.563Z,48.92
2022-12-13T03:47:01.036Z,51.00
2022-12-13T03:49:35.108Z,49.03
2022-12-13T03:52:02.932Z,48.47
2022-12-13T03:54:30.047Z,49.65
2022-12-13T03:56:58.000Z,49.30
2022-12-13T03:59:25.183Z,46.92
2022-12-13T04:01:52.344Z,48.22
2022-12-13T04:04:19.705Z,50.17
2022-12-13T04:06:46.925Z,50.50
2022-12-13T04:09:14.107Z,51.35
2022-12-13T04:12:00.287Z,52.67
2022-12-13T04:14:27.398Z,53.13
2022-12-13T04:16:54.501Z,52.25
2022-12-13T04:19:23.205Z,55.70
2022-12-13T04:21:51.093Z,50.58
2022-12-13T04:24:18.276Z,51.83
2022-12-13T04:26:45.479Z,48.08
2022-12-13T04:29:12.881Z,48.40
2022-12-13T04:31:40.028Z,51.67
2022-12-13T04:34:07.334Z,52.85
2022-12-13T04:36:34.464Z,47.75
2022-12-13T04:39:02.700Z,50.35
2022-12-13T04:41:34.567Z,53.95
2022-12-13T04:44:02.332Z,49.38
2022-12-13T04:46:29.452Z,52.95
2022-12-13T04:48:56.637Z,54.08
2022-12-13T04:51:23.794Z,54.83
2022-12-13T04:53:51.231Z,49.88
2022-12-13T04:56:19.979Z,57.70
2022-12-13T04:58:47.094Z,53.13
2022-12-13T05:01:14.329Z,51.80
2022-12-13T05:03:41.529Z,51.05
2022-12-13T05:06:26.685Z,55.05
2022-12-13T05:08:54.879Z,56.78
2022-12-13T05:11:35.890Z,59.15
2022-12-13T05:14:03.464Z,54.42
2022-12-13T05:16:30.659Z,54.40
2022-12-13T05:18:57.935Z,58.72
2022-12-13T05:21:25.104Z,50.40
2022-12-13T05:23:52.210Z,46.92
2022-12-13T05:26:19.489Z,52.95
2022-12-13T05:28:46.705Z,54.67
2022-12-13T05:31:23.278Z,53.33
2022-12-13T05:33:51.121Z,53.88
2022-12-13T05:36:18.345Z,54.13
2022-12-13T05:38:45.704Z,55.03
2022-12-13T05:41:17.319Z,57.80
2022-12-13T05:43:44.443Z,61.22
2022-12-13T05:46:12.843Z,55.85
2022-12-13T05:48:40.270Z,60.58
2022-12-13T05:51:09.719Z,57.65
2022-12-13T05:53:39.627Z,53.00
2022-12-13T05:56:06.966Z,56.00
2022-12-13T05:58:36.179Z,57.40
2022-12-13T06:01:11.192Z,61.08
2022-12-13T06:03:38.604Z,59.30
2022-12-13T06:06:06.458Z,55.97
2022-12-13T06:08:33.823Z,64.00
2022-12-13T06:11:10.345Z,65.45
2022-12-13T06:13:42.614Z,63.22
2022-12-13T06:18:50.564Z,63.83
2022-12-13T06:21:18.528Z,62.50
2022-12-13T06:23:45.661Z,62.72
2022-12-13T06:26:13.492Z,63.15
2022-12-13T06:28:40.608Z,59.78
2022-12-13T06:31:07.894Z,57.72
2022-12-13T06:33:39.123Z,63.25
2022-12-13T06:36:06.601Z,60.22
2022-12-13T06:38:33.792Z,59.78
2022-12-13T06:41:08.068Z,61.40
2022-12-13T06:43:35.164Z,60.20
2022-12-13T06:46:06.158Z,60.72
2022-12-13T06:48:33.780Z,59.95
2022-12-13T06:51:04.653Z,64.75
2022-12-13T06:53:32.194Z,61.67
2022-12-13T06:56:03.800Z,62.00
2022-12-13T06:58:30.956Z,63.78
2022-12-13T07:01:02.208Z,64.32
2022-12-13T07:03:30.097Z,58.83
2022-12-13T07:05:58.503Z,57.00
2022-12-13T07:08:26.020Z,60.95
2022-12-13T07:10:55.224Z,59.33
2022-12-13T07:13:22.792Z,55.55
2022-12-13T07:15:50.393Z,59.60
2022-12-13T07:18:18.000Z,53.60
2022-12-13T07:20:45.589Z,57.30
2022-12-13T07:23:13.202Z,70.63
2022-12-13T07:25:40.834Z,64.60
2022-12-13T07:28:08.641Z,65.85
2022-12-13T07:30:41.006Z,59.92
2022-12-13T07:33:09.127Z,61.53
2022-12-13T07:35:37.701Z,62.10
2022-12-13T07:38:05.588Z,62.03
2022-12-13T07:40:34.892Z,61.30
2022-12-13T07:43:02.133Z,61.10
2022-12-13T07:45:29.250Z,57.20
2022-12-13T07:47:56.418Z,55.30
2022-12-13T07:50:25.375Z,58.70
2022-12-13T07:52:53.594Z,52.78
2022-12-13T07:55:23.019Z,55.05
2022-12-13T07:58:13.233Z,55.08
2022-12-13T08:00:46.169Z,51.67
2022-12-13T08:03:25.379Z,52.15
2022-12-13T08:06:05.981Z,57.45
2022-12-13T08:08:33.725Z,58.45
2022-12-13T08:11:02.035Z,59.45
2022-12-13T08:13:29.222Z,60.40
2022-12-13T08:16:02.446Z,70.50
2022-12-13T08:18:30.484Z,61.92
2022-12-13T08:21:18.535Z,59.75
2022-12-13T08:23:53.114Z,66.97
2022-12-13T08:26:20.221Z,60.47
2022-12-13T08:28:47.348Z,67.57
2022-12-13T08:31:14.919Z,72.00
2022-12-13T08:33:43.708Z,65.43
2022-12-13T08:36:16.375Z,71.18
2022-12-13T08:38:43.708Z,69.00
2022-12-13T08:41:11.386Z,73.97
2022-12-13T08:43:38.660Z,71.07
2022-12-13T08:46:06.490Z,74.22
2022-12-13T08:48:33.677Z,76.47
2022-12-13T08:51:01.861Z,80.47
2022-12-13T08:53:31.772Z,78.20
2022-12-13T08:56:10.905Z,66.53
2022-12-13T08:58:38.531Z,71.05
2022-12-13T09:01:07.005Z,65.57
2022-12-13T09:03:34.311Z,59.30
2022-12-13T09:06:11.546Z,62.40
2022-12-13T09:08:39.297Z,58.20
2022-12-13T09:11:11.409Z,59.92
2022-12-13T09:13:49.896Z,55.00
2022-12-13T09:16:23.685Z,53.20
2022-12-13T09:18:55.216Z,56.33
2022-12-13T09:21:31.655Z,52.50
2022-12-13T09:24:01.333Z,57.92
2022-12-13T09:26:29.331Z,59.13
2022-12-13T09:29:10.626Z,62.45
2022-12-13T09:31:40.490Z,67.68
2022-12-13T09:34:08.739Z,77.10
2022-12-13T09:36:35.897Z,69.20
2022-12-13T09:39:03.073Z,66.93
2022-12-13T09:41:44.770Z,67.40
2022-12-13T09:44:32.275Z,67.18
2022-12-13T09:47:03.173Z,71.97
2022-12-13T09:49:39.056Z,70.15
2022-12-13T09:52:10.546Z,70.07
2022-12-13T09:54:47.845Z,67.93
2022-12-13T09:57:31.161Z,60.13
2022-12-13T10:00:01.775Z,53.80
2022-12-13T10:02:30.523Z,52.28
2022-12-13T10:05:04.067Z,60.83
2022-12-13T10:07:40.637Z,59.90
2022-12-13T10:10:10.095Z,63.45
2022-12-13T10:12:38.057Z,58.28
2022-12-13T10:15:05.586Z,52.97
2022-12-13T10:17:38.365Z,45.85
2022-12-13T10:20:06.849Z,44.17
2022-12-13T10:22:33.952Z,38.63
2022-12-13T10:25:05.366Z,42.92
2022-12-13T10:27:37.469Z,40.03
2022-12-13T10:30:13.872Z,40.10
2022-12-13T10:32:46.989Z,43.72
2022-12-13T10:35:20.762Z,39.08
2022-12-13T10:37:48.038Z,38.90
2022-12-13T10:40:32.731Z,41.13
2022-12-13T10:43:15.377Z,37.55
2022-12-13T10:45:44.228Z,38.38
2022-12-13T10:48:22.174Z,38.80
2022-12-13T10:50:59.807Z,35.20
2022-12-13T10:53:30.181Z,39.10
2022-12-13T10:56:02.354Z,39.28
2022-12-13T10:58:40.575Z,39.03
2022-12-13T11:01:20.626Z,37.20
2022-12-13T11:04:06.584Z,35.20
2022-12-13T11:06:44.741Z,33.60
2022-12-13T11:09:25.400Z,36.35
2022-12-13T11:11:58.557Z,36.42
2022-12-13T11:14:31.897Z,34.50
2022-12-13T11:17:01.816Z,29.98
2022-12-13T11:20:01.624Z,32.08
2022-12-13T11:22:32.965Z,30.52
2022-12-13T11:27:27.153Z,29.88
2022-12-13T11:30:02.077Z,31.13
2022-12-13T11:32:32.229Z,31.75
2022-12-13T11:35:37.673Z,37.65
2022-12-13T11:38:27.954Z,31.73
2022-12-13T11:41:03.990Z,31.25
2022-12-13T11:43:31.213Z,39.08
2022-12-13T11:45:59.772Z,37.70
2022-12-13T11:48:36.992Z,38.30
2022-12-13T11:51:06.375Z,43.90
2022-12-13T11:53:49.041Z,41.10
2022-12-13T11:56:20.446Z,38.53
2022-12-13T12:01:38.504Z,38.33
2022-12-13T12:04:30.354Z,40.83
2022-12-13T12:06:57.510Z,40.05
2022-12-13T12:09:29.929Z,37.28
2022-12-13T12:12:13.760Z,40.25
2022-12-13T12:14:54.866Z,36.08
2022-12-13T12:17:24.848Z,35.95
2022-12-13T12:19:54.077Z,31.20
2022-12-13T12:22:30.477Z,35.88
2022-12-13T12:25:04.178Z,32.97
2022-12-13T12:27:49.799Z,34.40
2022-12-13T12:30:24.644Z,33.63
2022-12-13T12:32:54.099Z,31.50
2022-12-13T12:35:45.728Z,37.72
2022-12-13T12:38:32.532Z,32.95
2022-12-13T12:41:18.384Z,32.00
2022-12-13T12:43:46.221Z,37.75
2022-12-13T12:46:46.848Z,33.88
2022-12-13T12:49:51.778Z,36.85
2022-12-13T12:52:24.780Z,37.13
2022-12-13T12:55:03.601Z,39.97
2022-12-13T12:57:30.748Z,41.03
2022-12-13T13:00:18.182Z,37.70
2022-12-13T13:02:45.332Z,44.55
2022-12-13T13:05:22.107Z,41.40
2022-12-13T13:07:56.611Z,36.85
2022-12-13T13:10:26.727Z,36.45
2022-12-13T13:13:11.249Z,43.27
2022-12-13T13:15:41.674Z,38.95
2022-12-13T13:18:28.835Z,38.03
2022-12-13T13:21:14.898Z,37.15
2022-12-13T13:23:42.097Z,35.17
2022-12-13T13:26:27.143Z,36.72
2022-12-13T13:28:56.608Z,37.53
2022-12-13T13:31:23.774Z,34.78
2022-12-13T13:33:51.386Z,31.95
2022-12-13T13:36:37.060Z,40.60
2022-12-13T13:39:04.187Z,33.25
2022-12-13T13:42:00.657Z,39.20
2022-12-13T13:44:34.187Z,33.10
2022-12-13T13:47:11.017Z,30.75
2022-12-13T13:49:40.389Z,27.95
2022-12-13T13:52:26.220Z,31.98
2022-12-13T13:55:12.364Z,32.00
2022-12-13T13:58:13.504Z,34.72
2022-12-13T14:01:04.300Z,35.03
2022-12-13T14:03:38.203Z,33.20
2022-12-13T14:06:20.610Z,34.55
2022-12-13T14:09:06.265Z,34.58
2022-12-13T14:11:48.618Z,30.23
2022-12-13T14:14:21.741Z,34.50
2022-12-13T14:16:49.658Z,35.47
2022-12-13T14:19:46.251Z,35.40
2022-12-13T14:22:25.330Z,36.95
2022-12-13T14:25:01.469Z,37.97
2022-12-13T14:27:44.031Z,31.13
2022-12-13T14:30:28.483Z,35.03
2022-12-13T14:32:57.026Z,32.38
2022-12-13T14:35:26.878Z,33.70
2022-12-13T14:38:01.701Z,32.78
2022-12-13T14:40:36.966Z,30.55
2022-12-13T14:43:04.567Z,33.80
2022-12-13T14:45:38.545Z,35.15
2022-12-13T14:48:07.708Z,39.38
2022-12-13T14:50:36.152Z,40.85
2022-12-13T14:53:03.465Z,37.22
2022-12-13T14:55:32.867Z,44.58
2022-12-13T14:58:00.926Z,44.63
2022-12-13T15:00:35.830Z,45.10
2022-12-13T15:03:04.123Z,46.63
2022-12-13T15:05:37.723Z,50.28
2022-12-13T15:08:10.974Z,45.30
2022-12-13T15:10:38.994Z,43.90
2022-12-13T15:13:06.449Z,52.42
2022-12-13T15:15:35.424Z,41.03
2022-12-13T15:18:21.762Z,47.95
2022-12-13T15:20:50.203Z,48.40
2022-12-13T15:23:40.328Z,44.08
2022-12-13T15:26:28.232Z,41.97
2022-12-13T15:28:59.397Z,43.75
2022-12-13T15:31:26.629Z,47.00
2022-12-13T15:33:54.283Z,45.67
2022-12-13T15:36:29.187Z,48.47
2022-12-13T15:38:56.290Z,49.60
2022-12-13T15:41:25.379Z,48.28
2022-12-13T15:43:54.221Z,52.45
2022-12-13T15:46:25.615Z,47.70
2022-12-13T15:51:29.728Z,42.95
2022-12-13T15:54:02.541Z,44.15
2022-12-13T15:56:33.700Z,38.40
2022-12-13T15:59:01.377Z,40.33
2022-12-13T16:01:35.892Z,43.05
2022-12-13T16:04:04.129Z,41.15
2022-12-13T16:06:36.513Z,41.38
2022-12-13T16:09:05.201Z,46.03
2022-12-13T16:11:36.761Z,46.42
2022-12-13T16:14:26.384Z,44.30
2022-12-13T16:16:54.580Z,39.03
2022-12-13T16:19:22.056Z,45.78
2022-12-13T16:21:49.688Z,43.58
2022-12-13T16:24:16.866Z,42.47
2022-12-13T16:26:45.357Z,43.90
2022-12-13T16:29:14.287Z,34.20
2022-12-13T16:31:41.474Z,33.22
2022-12-13T16:34:08.764Z,31.60
2022-12-13T16:36:36.277Z,29.20
2022-12-13T16:39:04.261Z,28.27
2022-12-13T16:41:31.963Z,28.63
2022-12-13T16:44:01.146Z,26.50
2022-12-13T16:47:11.911Z,25.40
2022-12-13T16:49:19.817Z,26.80
2022-12-13T16:54:16.189Z,25.90
2022-12-13T16:56:43.557Z,24.80
2022-12-13T16:59:15.191Z,28.30
2022-12-13T17:01:42.997Z,28.58
2022-12-13T17:04:19.307Z,29.33
2022-12-13T17:06:47.658Z,28.48
2022-12-13T17:09:14.778Z,25.75
2022-12-13T17:11:41.927Z,25.90
2022-12-13T17:14:09.289Z,29.05
2022-12-13T17:16:36.497Z,25.67
2022-12-13T17:19:03.695Z,29.92
2022-12-13T17:21:30.935Z,25.90
2022-12-13T17:23:59.487Z,37.50
2022-12-13T17:26:27.421Z,33.35
2022-12-13T17:28:54.620Z,31.20
2022-12-13T17:31:22.905Z,32.58
2022-12-13T17:33:50.112Z,29.73
2022-12-13T17:36:17.498Z,25.77
2022-12-13T17:38:48.459Z,30.10
2022-12-13T17:41:16.395Z,25.15
2022-12-13T17:43:44.221Z,27.35
2022-12-13T17:46:15.546Z,25.48
2022-12-13T17:48:42.917Z,26.67
2022-12-13T17:51:11.403Z,28.38
2022-12-13T17:53:42.225Z,28.08
2022-12-13T17:56:12.220Z,23.27
2022-12-13T17:58:40.109Z,23.40
2022-12-13T18:01:15.072Z,19.45
2022-12-13T18:03:42.476Z,22.90
2022-12-13T18:06:09.816Z,22.58
2022-12-13T18:08:38.262Z,22.08
2022-12-13T18:11:31.681Z,21.45
2022-12-13T18:13:55.033Z,17.88
2022-12-13T18:16:23.018Z,18.70
2022-12-13T18:18:54.701Z,18.17
2022-12-13T18:21:23.654Z,15.20
2022-12-13T18:23:55.146Z,11.68
2022-12-13T18:26:24.755Z,16.40
2022-12-13T18:28:52.346Z,14.35
2022-12-13T18:31:20.894Z,15.88
2022-12-13T18:33:49.461Z,16.52
2022-12-13T18:36:16.863Z,12.80
2022-12-13T18:38:44.411Z,15.52
2022-12-13T18:41:18.085Z,14.30
2022-12-13T18:43:45.675Z,14.82
2022-12-13T18:46:13.694Z,10.07
2022-12-13T18:48:41.193Z,15.25
2022-12-13T18:51:09.261Z,11.30
2022-12-13T18:53:37.211Z,11.15
2022-12-13T18:56:05.707Z,13.05
2022-12-13T18:58:33.178Z,9.55
2022-12-13T19:01:00.612Z,9.85
2022-12-13T19:03:28.392Z,9.23
2022-12-13T19:05:59.478Z,11.38
2022-12-13T19:08:28.411Z,13.43
2022-12-13T19:10:56.755Z,9.13
2022-12-13T19:13:25.246Z,11.50
2022-12-13T19:15:53.347Z,10.05
2022-12-13T19:18:20.756Z,10.82
2022-12-13T19:20:48.430Z,8.13
2022-12-13T19:23:16.213Z,10.98
2022-12-13T19:25:43.334Z,10.95
2022-12-13T19:28:11.409Z,10.95
2022-12-13T19:30:39.077Z,11.70
2022-12-13T19:33:08.011Z,12.63
2022-12-13T19:35:35.118Z,13.63
2022-12-13T19:38:02.361Z,12.50
2022-12-13T19:40:29.513Z,13.10
2022-12-13T19:42:56.631Z,15.48
2022-12-13T19:45:23.868Z,13.32
2022-12-13T19:47:50.972Z,8.30
2022-12-13T19:50:18.210Z,12.93
2022-12-13T19:52:45.368Z,11.35
2022-12-13T19:55:12.506Z,14.73
2022-12-13T19:57:39.634Z,15.52
2022-12-13T20:00:09.632Z,12.32
2022-12-13T20:02:36.944Z,8.85
2022-12-13T20:05:04.416Z,13.60
2022-12-13T20:07:31.654Z,11.85
2022-12-13T20:09:58.765Z,13.25
2022-12-13T20:12:25.904Z,15.45
2022-12-13T20:14:53.078Z,13.43
2022-12-13T20:17:20.262Z,16.73
2022-12-13T20:19:47.465Z,18.08
2022-12-13T20:22:15.648Z,13.52
2022-12-13T20:24:43.056Z,17.55
2022-12-13T20:27:11.875Z,17.60
2022-12-13T20:29:39.066Z,13.48
2022-12-13T20:32:06.259Z,14.48
2022-12-13T20:34:34.405Z,16.00
2022-12-13T20:37:01.672Z,14.50
2022-12-13T20:39:28.859Z,15.32
2022-12-13T20:41:55.990Z,11.23
2022-12-13T20:44:24.469Z,14.80
2022-12-13T20:46:51.745Z,16.70
2022-12-13T20:49:18.952Z,14.93
2022-12-13T20:51:46.385Z,14.00
2022-12-13T20:54:13.562Z,17.15
2022-12-13T20:56:40.939Z,11.73
2022-12-13T20:59:09.417Z,10.70
2022-12-13T21:01:38.428Z,13.85
2022-12-13T21:04:06.255Z,15.80
2022-12-13T21:06:36.097Z,14.13
2022-12-13T21:09:03.898Z,16.23
2022-12-13T21:11:36.021Z,17.38
2022-12-13T21:14:09.204Z,14.07
2022-12-13T21:16:43.947Z,14.40
2022-12-13T21:19:12.402Z,16.00
2022-12-13T21:21:39.552Z,15.02
2022-12-13T21:24:07.012Z,15.75
2022-12-13T21:26:36.130Z,17.15
2022-12-13T21:29:06.346Z,16.08
2022-12-13T21:31:33.671Z,14.77
2022-12-13T21:34:02.059Z,16.60
2022-12-13T21:36:30.402Z,19.10
2022-12-13T21:38:58.852Z,17.55
2022-12-13T21:41:26.084Z,16.65
2022-12-13T21:43:53.581Z,13.68
2022-12-13T21:46:22.220Z,20.00
2022-12-13T21:48:49.894Z,18.90
2022-12-13T21:51:19.393Z,22.35
2022-12-13T21:53:46.591Z,20.10
2022-12-13T21:56:33.723Z,19.55
2022-12-13T21:59:16.196Z,18.05
2022-12-13T22:02:12.597Z,19.80
2022-12-13T22:04:40.020Z,14.02
2022-12-13T22:07:08.217Z,18.15
2022-12-13T22:09:35.971Z,18.70
2022-12-13T22:12:03.234Z,15.13
2022-12-13T22:14:30.387Z,18.38
2022-12-13T22:16:57.495Z,17.20
2022-12-13T22:19:24.745Z,18.15
2022-12-13T22:21:51.937Z,15.50
2022-12-13T22:24:19.050Z,15.15
2022-12-13T22:26:46.265Z,15.57
2022-12-13T22:29:13.521Z,15.77
2022-12-13T22:31:41.198Z,12.05
2022-12-13T22:34:09.086Z,12.18
2022-12-13T22:36:36.277Z,14.85
2022-12-13T22:39:04.175Z,15.90
2022-12-13T22:41:31.456Z,14.30
2022-12-13T22:43:59.209Z,13.52
2022-12-13T22:46:27.206Z,13.77
2022-12-13T22:48:54.512Z,14.82
2022-12-13T22:51:21.648Z,16.75
2022-12-13T22:53:49.083Z,16.00
2022-12-13T22:56:18.130Z,10.65
2022-12-13T22:58:45.376Z,16.60
2022-12-13T23:01:16.953Z,14.75
2022-12-13T23:03:44.703Z,13.85
2022-12-13T23:06:12.962Z,16.02
2022-12-13T23:08:44.941Z,14.38
2022-12-13T23:11:39.453Z,16.75
2022-12-13T23:14:08.172Z,17.23
2022-12-13T23:16:35.959Z,15.68
2022-12-13T23:19:32.281Z,16.17
2022-12-13T23:21:50.971Z,15.50
2022-12-13T23:24:18.141Z,17.40
2022-12-13T23:26:45.307Z,19.42
2022-12-13T23:29:12.544Z,18.67
2022-12-13T23:31:40.688Z,17.13
2022-12-13T23:34:07.945Z,16.92
2022-12-13T23:36:35.673Z,19.17
2022-12-13T23:39:04.089Z,17.27
2022-12-13T23:41:33.854Z,19.48
2022-12-13T23:44:01.328Z,18.60
2022-12-13T23:46:30.092Z,18.08
2022-12-13T23:48:57.593Z,18.85
2022-12-13T23:51:25.792Z,19.33
2022-12-13T23:53:53.639Z,19.05
2022-12-13T23:56:21.068Z,22.45
2022-12-13T23:58:48.868Z,20.08
